sensor_id;sensor_type;location;lat;lon;timestamp;P1;durP1;ratioP1;P2;durP2;ratioP2
71969;SDS011;59838;52.152;5.436;2023-11-22T00:01:35;9.52;;;4.68;;
71969;SDS011;59838;52.152;5.436;2023-11-22T00:04:02;8.70;;;4.70;;
71969;SDS011;59838;52.152;5.436;2023-11-22T00:06:29;7.80;;;4.33;;
71969;SDS011;59838;52.152;5.436;2023-11-22T00:08:56;8.15;;;4.40;;
71969;SDS011;59838;52.152;5.436;2023-11-22T00:11:22;7.88;;;4.55;;
71969;SDS011;59838;52.152;5.436;2023-11-22T00:13:49;7.97;;;4.30;;
71969;SDS011;59838;52.152;5.436;2023-11-22T00:16:15;8.65;;;4.07;;
71969;SDS011;59838;52.152;5.436;2023-11-22T00:18:42;7.27;;;4.20;;
71969;SDS011;59838;52.152;5.436;2023-11-22T00:21:09;6.28;;;3.58;;
71969;SDS011;59838;52.152;5.436;2023-11-22T00:23:36;10.13;;;4.38;;
71969;SDS011;59838;52.152;5.436;2023-11-22T00:26:02;7.38;;;4.63;;
71969;SDS011;59838;52.152;5.436;2023-11-22T00:28:29;8.07;;;4.43;;
71969;SDS011;59838;52.152;5.436;2023-11-22T00:30:55;11.00;;;4.83;;
71969;SDS011;59838;52.152;5.436;2023-11-22T00:33:22;12.02;;;4.95;;
71969;SDS011;59838;52.152;5.436;2023-11-22T00:35:48;15.65;;;6.38;;
71969;SDS011;59838;52.152;5.436;2023-11-22T00:38:15;22.90;;;7.38;;
71969;SDS011;59838;52.152;5.436;2023-11-22T00:40:41;11.90;;;5.95;;
71969;SDS011;59838;52.152;5.436;2023-11-22T00:43:08;14.60;;;5.67;;
71969;SDS011;59838;52.152;5.436;2023-11-22T00:45:34;15.15;;;5.93;;
71969;SDS011;59838;52.152;5.436;2023-11-22T00:48:01;17.13;;;6.72;;
71969;SDS011;59838;52.152;5.436;2023-11-22T00:50:28;16.13;;;6.82;;
71969;SDS011;59838;52.152;5.436;2023-11-22T00:52:54;14.90;;;6.57;;
71969;SDS011;59838;52.152;5.436;2023-11-22T00:55:21;12.77;;;5.53;;
71969;SDS011;59838;52.152;5.436;2023-11-22T00:57:47;13.15;;;6.13;;
71969;SDS011;59838;52.152;5.436;2023-11-22T01:00:14;12.30;;;5.38;;
71969;SDS011;59838;52.152;5.436;2023-11-22T01:02:41;10.02;;;4.88;;
71969;SDS011;59838;52.152;5.436;2023-11-22T01:05:08;8.20;;;4.40;;
71969;SDS011;59838;52.152;5.436;2023-11-22T01:07:37;10.70;;;4.97;;
71969;SDS011;59838;52.152;5.436;2023-11-22T01:10:04;11.82;;;4.88;;
71969;SDS011;59838;52.152;5.436;2023-11-22T01:12:32;8.15;;;4.25;;
71969;SDS011;59838;52.152;5.436;2023-11-22T01:14:59;7.05;;;4.47;;
71969;SDS011;59838;52.152;5.436;2023-11-22T01:17:25;8.52;;;4.68;;
71969;SDS011;59838;52.152;5.436;2023-11-22T01:19:52;10.00;;;4.40;;
71969;SDS011;59838;52.152;5.436;2023-11-22T01:22:18;8.60;;;4.63;;
71969;SDS011;59838;52.152;5.436;2023-11-22T01:24:46;8.27;;;3.97;;
71969;SDS011;59838;52.152;5.436;2023-11-22T01:27:12;8.20;;;4.18;;
71969;SDS011;59838;52.152;5.436;2023-11-22T01:29:38;11.27;;;5.35;;
71969;SDS011;59838;52.152;5.436;2023-11-22T01:32:05;13.67;;;7.13;;
71969;SDS011;59838;52.152;5.436;2023-11-22T01:34:31;8.43;;;4.80;;
71969;SDS011;59838;52.152;5.436;2023-11-22T01:36:58;9.68;;;4.55;;
71969;SDS011;59838;52.152;5.436;2023-11-22T01:39:24;9.00;;;4.65;;
71969;SDS011;59838;52.152;5.436;2023-11-22T01:41:52;9.18;;;5.05;;
71969;SDS011;59838;52.152;5.436;2023-11-22T01:44:19;9.20;;;4.10;;
71969;SDS011;59838;52.152;5.436;2023-11-22T01:46:46;6.82;;;3.90;;
71969;SDS011;59838;52.152;5.436;2023-11-22T01:49:12;5.85;;;3.55;;
71969;SDS011;59838;52.152;5.436;2023-11-22T01:51:40;5.85;;;4.47;;
71969;SDS011;59838;52.152;5.436;2023-11-22T01:54:07;6.68;;;3.33;;
71969;SDS011;59838;52.152;5.436;2023-11-22T01:56:35;8.73;;;4.40;;
71969;SDS011;59838;52.152;5.436;2023-11-22T01:59:03;9.38;;;5.18;;
71969;SDS011;59838;52.152;5.436;2023-11-22T02:01:30;6.90;;;4.20;;
71969;SDS011;59838;52.152;5.436;2023-11-22T02:03:57;10.23;;;5.13;;
71969;SDS011;59838;52.152;5.436;2023-11-22T02:06:24;8.60;;;4.15;;
71969;SDS011;59838;52.152;5.436;2023-11-22T02:08:51;6.27;;;3.97;;
71969;SDS011;59838;52.152;5.436;2023-11-22T02:11:18;8.85;;;4.72;;
71969;SDS011;59838;52.152;5.436;2023-11-22T02:13:48;7.35;;;4.30;;
71969;SDS011;59838;52.152;5.436;2023-11-22T02:16:16;7.55;;;4.03;;
71969;SDS011;59838;52.152;5.436;2023-11-22T02:18:44;6.25;;;3.83;;
71969;SDS011;59838;52.152;5.436;2023-11-22T02:21:12;8.13;;;3.20;;
71969;SDS011;59838;52.152;5.436;2023-11-22T02:23:38;8.75;;;3.50;;
71969;SDS011;59838;52.152;5.436;2023-11-22T02:26:05;9.60;;;4.90;;
71969;SDS011;59838;52.152;5.436;2023-11-22T02:28:31;8.50;;;3.70;;
71969;SDS011;59838;52.152;5.436;2023-11-22T02:30:58;7.55;;;3.75;;
71969;SDS011;59838;52.152;5.436;2023-11-22T02:33:25;6.80;;;3.30;;
71969;SDS011;59838;52.152;5.436;2023-11-22T02:35:51;6.28;;;3.53;;
71969;SDS011;59838;52.152;5.436;2023-11-22T02:38:18;5.75;;;3.58;;
71969;SDS011;59838;52.152;5.436;2023-11-22T02:40:44;7.43;;;4.13;;
71969;SDS011;59838;52.152;5.436;2023-11-22T02:43:11;8.57;;;4.18;;
71969;SDS011;59838;52.152;5.436;2023-11-22T02:45:38;11.90;;;4.87;;
71969;SDS011;59838;52.152;5.436;2023-11-22T02:48:07;6.22;;;3.33;;
71969;SDS011;59838;52.152;5.436;2023-11-22T02:50:35;7.35;;;4.00;;
71969;SDS011;59838;52.152;5.436;2023-11-22T02:53:03;6.57;;;3.88;;
71969;SDS011;59838;52.152;5.436;2023-11-22T02:55:30;8.52;;;3.83;;
71969;SDS011;59838;52.152;5.436;2023-11-22T02:57:56;13.07;;;4.30;;
71969;SDS011;59838;52.152;5.436;2023-11-22T03:00:23;10.63;;;4.50;;
71969;SDS011;59838;52.152;5.436;2023-11-22T03:02:51;8.65;;;4.13;;
71969;SDS011;59838;52.152;5.436;2023-11-22T03:05:20;6.75;;;3.92;;
71969;SDS011;59838;52.152;5.436;2023-11-22T03:07:47;7.20;;;4.15;;
71969;SDS011;59838;52.152;5.436;2023-11-22T03:10:14;8.83;;;4.50;;
71969;SDS011;59838;52.152;5.436;2023-11-22T03:12:44;11.07;;;4.53;;
71969;SDS011;59838;52.152;5.436;2023-11-22T03:15:10;7.72;;;4.35;;
71969;SDS011;59838;52.152;5.436;2023-11-22T03:17:37;9.30;;;5.00;;
71969;SDS011;59838;52.152;5.436;2023-11-22T03:20:08;8.23;;;4.10;;
71969;SDS011;59838;52.152;5.436;2023-11-22T03:22:37;10.67;;;4.73;;
71969;SDS011;59838;52.152;5.436;2023-11-22T03:25:05;6.72;;;4.22;;
71969;SDS011;59838;52.152;5.436;2023-11-22T03:27:32;4.95;;;3.22;;
71969;SDS011;59838;52.152;5.436;2023-11-22T03:29:59;11.40;;;3.97;;
71969;SDS011;59838;52.152;5.436;2023-11-22T03:32:26;6.13;;;3.55;;
71969;SDS011;59838;52.152;5.436;2023-11-22T03:34:52;5.27;;;3.27;;
71969;SDS011;59838;52.152;5.436;2023-11-22T03:37:19;6.05;;;3.47;;
71969;SDS011;59838;52.152;5.436;2023-11-22T03:39:45;6.43;;;3.38;;
71969;SDS011;59838;52.152;5.436;2023-11-22T03:42:15;7.13;;;3.35;;
71969;SDS011;59838;52.152;5.436;2023-11-22T03:44:44;6.68;;;3.72;;
71969;SDS011;59838;52.152;5.436;2023-11-22T03:47:11;5.37;;;3.20;;
71969;SDS011;59838;52.152;5.436;2023-11-22T03:49:39;6.50;;;2.92;;
71969;SDS011;59838;52.152;5.436;2023-11-22T03:52:06;6.40;;;3.92;;
71969;SDS011;59838;52.152;5.436;2023-11-22T03:54:34;7.28;;;3.72;;
71969;SDS011;59838;52.152;5.436;2023-11-22T03:57:01;5.63;;;3.10;;
71969;SDS011;59838;52.152;5.436;2023-11-22T03:59:28;5.97;;;3.80;;
71969;SDS011;59838;52.152;5.436;2023-11-22T04:01:55;7.53;;;3.60;;
71969;SDS011;59838;52.152;5.436;2023-11-22T04:04:22;6.22;;;3.17;;
71969;SDS011;59838;52.152;5.436;2023-11-22T04:06:49;8.02;;;3.65;;
71969;SDS011;59838;52.152;5.436;2023-11-22T04:09:16;6.50;;;3.10;;
71969;SDS011;59838;52.152;5.436;2023-11-22T04:11:46;5.47;;;2.90;;
71969;SDS011;59838;52.152;5.436;2023-11-22T04:14:15;5.85;;;2.60;;
71969;SDS011;59838;52.152;5.436;2023-11-22T04:16:42;9.63;;;1.85;;
71969;SDS011;59838;52.152;5.436;2023-11-22T04:19:09;2.85;;;1.70;;
71969;SDS011;59838;52.152;5.436;2023-11-22T04:21:36;4.50;;;2.45;;
71969;SDS011;59838;52.152;5.436;2023-11-22T04:24:03;4.40;;;2.10;;
71969;SDS011;59838;52.152;5.436;2023-11-22T04:26:30;4.40;;;2.47;;
71969;SDS011;59838;52.152;5.436;2023-11-22T04:28:56;4.15;;;2.20;;
71969;SDS011;59838;52.152;5.436;2023-11-22T04:31:24;6.03;;;2.60;;
71969;SDS011;59838;52.152;5.436;2023-11-22T04:33:51;5.60;;;2.67;;
71969;SDS011;59838;52.152;5.436;2023-11-22T04:36:18;6.93;;;3.17;;
71969;SDS011;59838;52.152;5.436;2023-11-22T04:38:46;6.80;;;3.30;;
71969;SDS011;59838;52.152;5.436;2023-11-22T04:41:13;8.45;;;3.08;;
71969;SDS011;59838;52.152;5.436;2023-11-22T04:43:40;5.55;;;2.85;;
71969;SDS011;59838;52.152;5.436;2023-11-22T04:46:08;6.20;;;3.38;;
71969;SDS011;59838;52.152;5.436;2023-11-22T04:48:34;5.73;;;3.27;;
71969;SDS011;59838;52.152;5.436;2023-11-22T04:51:03;12.35;;;3.42;;
71969;SDS011;59838;52.152;5.436;2023-11-22T04:53:29;7.47;;;3.85;;
71969;SDS011;59838;52.152;5.436;2023-11-22T04:55:56;11.43;;;4.50;;
71969;SDS011;59838;52.152;5.436;2023-11-22T04:58:22;10.82;;;4.38;;
71969;SDS011;59838;52.152;5.436;2023-11-22T05:00:48;11.33;;;4.20;;
71969;SDS011;59838;52.152;5.436;2023-11-22T05:03:15;9.35;;;4.72;;
71969;SDS011;59838;52.152;5.436;2023-11-22T05:05:42;8.40;;;4.32;;
71969;SDS011;59838;52.152;5.436;2023-11-22T05:08:08;6.50;;;4.07;;
71969;SDS011;59838;52.152;5.436;2023-11-22T05:10:35;7.50;;;3.67;;
71969;SDS011;59838;52.152;5.436;2023-11-22T05:13:02;8.73;;;4.13;;
71969;SDS011;59838;52.152;5.436;2023-11-22T05:15:29;11.48;;;3.65;;
71969;SDS011;59838;52.152;5.436;2023-11-22T05:17:56;8.80;;;4.72;;
71969;SDS011;59838;52.152;5.436;2023-11-22T05:20:22;10.30;;;4.70;;
71969;SDS011;59838;52.152;5.436;2023-11-22T05:22:49;9.90;;;3.90;;
71969;SDS011;59838;52.152;5.436;2023-11-22T05:25:15;5.70;;;3.30;;
71969;SDS011;59838;52.152;5.436;2023-11-22T05:27:42;6.43;;;3.20;;
71969;SDS011;59838;52.152;5.436;2023-11-22T05:30:08;4.30;;;2.38;;
71969;SDS011;59838;52.152;5.436;2023-11-22T05:32:37;6.47;;;3.30;;
71969;SDS011;59838;52.152;5.436;2023-11-22T05:35:04;5.07;;;3.05;;
71969;SDS011;59838;52.152;5.436;2023-11-22T05:37:36;7.93;;;3.17;;
71969;SDS011;59838;52.152;5.436;2023-11-22T05:40:03;6.22;;;2.78;;
71969;SDS011;59838;52.152;5.436;2023-11-22T05:42:31;5.43;;;2.92;;
71969;SDS011;59838;52.152;5.436;2023-11-22T05:44:58;8.15;;;3.40;;
71969;SDS011;59838;52.152;5.436;2023-11-22T05:47:24;5.60;;;3.10;;
71969;SDS011;59838;52.152;5.436;2023-11-22T05:49:51;6.47;;;3.43;;
71969;SDS011;59838;52.152;5.436;2023-11-22T05:52:18;6.97;;;3.63;;
71969;SDS011;59838;52.152;5.436;2023-11-22T05:54:46;5.50;;;2.42;;
71969;SDS011;59838;52.152;5.436;2023-11-22T05:57:14;9.52;;;4.38;;
71969;SDS011;59838;52.152;5.436;2023-11-22T05:59:41;8.77;;;4.80;;
71969;SDS011;59838;52.152;5.436;2023-11-22T06:02:07;9.83;;;4.27;;
71969;SDS011;59838;52.152;5.436;2023-11-22T06:04:34;9.70;;;4.32;;
71969;SDS011;59838;52.152;5.436;2023-11-22T06:07:04;10.13;;;5.13;;
71969;SDS011;59838;52.152;5.436;2023-11-22T06:09:31;9.60;;;4.55;;
71969;SDS011;59838;52.152;5.436;2023-11-22T06:11:57;11.48;;;5.03;;
71969;SDS011;59838;52.152;5.436;2023-11-22T06:14:24;8.33;;;4.30;;
71969;SDS011;59838;52.152;5.436;2023-11-22T06:16:50;9.68;;;4.40;;
71969;SDS011;59838;52.152;5.436;2023-11-22T06:19:16;10.60;;;4.63;;
71969;SDS011;59838;52.152;5.436;2023-11-22T06:21:43;11.73;;;4.30;;
71969;SDS011;59838;52.152;5.436;2023-11-22T06:24:09;8.07;;;4.45;;
71969;SDS011;59838;52.152;5.436;2023-11-22T06:26:37;5.97;;;3.57;;
71969;SDS011;59838;52.152;5.436;2023-11-22T06:29:06;9.57;;;3.42;;
71969;SDS011;59838;52.152;5.436;2023-11-22T06:31:32;7.55;;;3.70;;
71969;SDS011;59838;52.152;5.436;2023-11-22T06:33:59;7.53;;;3.50;;
71969;SDS011;59838;52.152;5.436;2023-11-22T06:36:27;6.88;;;3.92;;
71969;SDS011;59838;52.152;5.436;2023-11-22T06:38:55;12.30;;;4.47;;
71969;SDS011;59838;52.152;5.436;2023-11-22T06:41:22;8.43;;;3.72;;
71969;SDS011;59838;52.152;5.436;2023-11-22T06:43:48;7.03;;;3.78;;
71969;SDS011;59838;52.152;5.436;2023-11-22T06:46:15;9.40;;;3.60;;
71969;SDS011;59838;52.152;5.436;2023-11-22T06:48:42;9.57;;;3.63;;
71969;SDS011;59838;52.152;5.436;2023-11-22T06:51:15;8.90;;;4.27;;
71969;SDS011;59838;52.152;5.436;2023-11-22T06:53:42;6.05;;;3.72;;
71969;SDS011;59838;52.152;5.436;2023-11-22T06:56:08;7.13;;;3.92;;
71969;SDS011;59838;52.152;5.436;2023-11-22T06:58:35;10.70;;;5.18;;
71969;SDS011;59838;52.152;5.436;2023-11-22T07:01:01;10.75;;;4.47;;
71969;SDS011;59838;52.152;5.436;2023-11-22T07:03:28;11.00;;;5.23;;
71969;SDS011;59838;52.152;5.436;2023-11-22T07:05:54;8.98;;;4.97;;
71969;SDS011;59838;52.152;5.436;2023-11-22T07:08:22;12.30;;;4.63;;
71969;SDS011;59838;52.152;5.436;2023-11-22T07:10:48;10.25;;;5.03;;
71969;SDS011;59838;52.152;5.436;2023-11-22T07:13:16;10.50;;;5.35;;
71969;SDS011;59838;52.152;5.436;2023-11-22T07:15:44;12.63;;;5.17;;
71969;SDS011;59838;52.152;5.436;2023-11-22T07:18:10;10.05;;;4.93;;
71969;SDS011;59838;52.152;5.436;2023-11-22T07:20:39;13.20;;;5.07;;
71969;SDS011;59838;52.152;5.436;2023-11-22T07:23:06;11.52;;;5.30;;
71969;SDS011;59838;52.152;5.436;2023-11-22T07:25:33;10.27;;;5.63;;
71969;SDS011;59838;52.152;5.436;2023-11-22T07:28:00;12.27;;;5.83;;
71969;SDS011;59838;52.152;5.436;2023-11-22T07:30:26;12.50;;;6.20;;
71969;SDS011;59838;52.152;5.436;2023-11-22T07:32:56;11.35;;;5.38;;
71969;SDS011;59838;52.152;5.436;2023-11-22T07:35:25;10.65;;;5.60;;
71969;SDS011;59838;52.152;5.436;2023-11-22T07:37:54;12.95;;;5.75;;
71969;SDS011;59838;52.152;5.436;2023-11-22T07:40:21;20.13;;;5.70;;
71969;SDS011;59838;52.152;5.436;2023-11-22T07:42:48;8.57;;;4.63;;
71969;SDS011;59838;52.152;5.436;2023-11-22T07:45:15;15.57;;;5.55;;
71969;SDS011;59838;52.152;5.436;2023-11-22T07:47:43;8.55;;;4.70;;
71969;SDS011;59838;52.152;5.436;2023-11-22T07:50:11;9.98;;;4.88;;
71969;SDS011;59838;52.152;5.436;2023-11-22T07:52:38;9.57;;;5.87;;
71969;SDS011;59838;52.152;5.436;2023-11-22T07:55:06;9.98;;;5.13;;
71969;SDS011;59838;52.152;5.436;2023-11-22T07:57:37;13.00;;;5.18;;
71969;SDS011;59838;52.152;5.436;2023-11-22T08:00:05;11.98;;;5.72;;
71969;SDS011;59838;52.152;5.436;2023-11-22T08:02:34;10.35;;;4.72;;
71969;SDS011;59838;52.152;5.436;2023-11-22T08:05:03;12.13;;;4.80;;
71969;SDS011;59838;52.152;5.436;2023-11-22T08:07:35;12.15;;;5.45;;
71969;SDS011;59838;52.152;5.436;2023-11-22T08:10:05;11.38;;;5.20;;
71969;SDS011;59838;52.152;5.436;2023-11-22T08:12:36;12.32;;;5.45;;
71969;SDS011;59838;52.152;5.436;2023-11-22T08:15:05;9.77;;;4.95;;
71969;SDS011;59838;52.152;5.436;2023-11-22T08:17:32;8.47;;;4.97;;
71969;SDS011;59838;52.152;5.436;2023-11-22T08:19:58;15.52;;;5.85;;
71969;SDS011;59838;52.152;5.436;2023-11-22T08:22:26;9.30;;;4.75;;
71969;SDS011;59838;52.152;5.436;2023-11-22T08:24:55;12.27;;;5.18;;
71969;SDS011;59838;52.152;5.436;2023-11-22T08:27:23;9.50;;;4.78;;
71969;SDS011;59838;52.152;5.436;2023-11-22T08:29:50;11.63;;;5.97;;
71969;SDS011;59838;52.152;5.436;2023-11-22T08:32:16;16.02;;;5.80;;
71969;SDS011;59838;52.152;5.436;2023-11-22T08:34:46;17.90;;;5.93;;
71969;SDS011;59838;52.152;5.436;2023-11-22T08:37:13;12.57;;;6.43;;
71969;SDS011;59838;52.152;5.436;2023-11-22T08:39:39;15.77;;;5.93;;
71969;SDS011;59838;52.152;5.436;2023-11-22T08:42:06;10.97;;;5.57;;
71969;SDS011;59838;52.152;5.436;2023-11-22T08:44:36;14.70;;;6.85;;
71969;SDS011;59838;52.152;5.436;2023-11-22T08:47:03;12.55;;;5.93;;
71969;SDS011;59838;52.152;5.436;2023-11-22T08:49:30;12.27;;;5.95;;
71969;SDS011;59838;52.152;5.436;2023-11-22T08:51:56;10.93;;;5.72;;
71969;SDS011;59838;52.152;5.436;2023-11-22T08:54:25;14.10;;;6.00;;
71969;SDS011;59838;52.152;5.436;2023-11-22T08:56:58;10.23;;;5.10;;
71969;SDS011;59838;52.152;5.436;2023-11-22T08:59:24;12.65;;;6.63;;
71969;SDS011;59838;52.152;5.436;2023-11-22T09:01:51;11.30;;;6.15;;
71969;SDS011;59838;52.152;5.436;2023-11-22T09:04:17;10.02;;;5.53;;
71969;SDS011;59838;52.152;5.436;2023-11-22T09:06:44;11.53;;;5.67;;
71969;SDS011;59838;52.152;5.436;2023-11-22T09:09:13;11.88;;;6.47;;
71969;SDS011;59838;52.152;5.436;2023-11-22T09:11:41;11.10;;;5.65;;
71969;SDS011;59838;52.152;5.436;2023-11-22T09:14:08;10.43;;;6.43;;
71969;SDS011;59838;52.152;5.436;2023-11-22T09:16:37;14.15;;;7.25;;
71969;SDS011;59838;52.152;5.436;2023-11-22T09:19:05;14.97;;;6.80;;
71969;SDS011;59838;52.152;5.436;2023-11-22T09:21:35;17.67;;;7.93;;
71969;SDS011;59838;52.152;5.436;2023-11-22T09:24:01;18.88;;;6.82;;
71969;SDS011;59838;52.152;5.436;2023-11-22T09:26:28;12.55;;;6.00;;
71969;SDS011;59838;52.152;5.436;2023-11-22T09:28:55;15.02;;;6.72;;
71969;SDS011;59838;52.152;5.436;2023-11-22T09:31:22;13.67;;;6.37;;
71969;SDS011;59838;52.152;5.436;2023-11-22T09:33:48;19.65;;;7.85;;
71969;SDS011;59838;52.152;5.436;2023-11-22T09:36:15;13.80;;;7.60;;
71969;SDS011;59838;52.152;5.436;2023-11-22T09:38:42;17.02;;;7.38;;
71969;SDS011;59838;52.152;5.436;2023-11-22T09:41:08;17.55;;;7.47;;
71969;SDS011;59838;52.152;5.436;2023-11-22T09:43:35;16.33;;;7.00;;
71969;SDS011;59838;52.152;5.436;2023-11-22T09:46:02;12.00;;;6.70;;
71969;SDS011;59838;52.152;5.436;2023-11-22T09:48:29;14.52;;;6.82;;
71969;SDS011;59838;52.152;5.436;2023-11-22T09:51:15;13.27;;;6.95;;
71969;SDS011;59838;52.152;5.436;2023-11-22T09:53:53;14.15;;;7.03;;
71969;SDS011;59838;52.152;5.436;2023-11-22T09:56:27;15.53;;;7.33;;
71969;SDS011;59838;52.152;5.436;2023-11-22T09:58:54;17.48;;;7.22;;
71969;SDS011;59838;52.152;5.436;2023-11-22T10:01:22;18.60;;;7.93;;
71969;SDS011;59838;52.152;5.436;2023-11-22T10:03:49;14.60;;;6.93;;
71969;SDS011;59838;52.152;5.436;2023-11-22T10:06:17;17.25;;;8.00;;
71969;SDS011;59838;52.152;5.436;2023-11-22T10:08:44;12.30;;;7.00;;
71969;SDS011;59838;52.152;5.436;2023-11-22T10:11:16;12.75;;;7.15;;
71969;SDS011;59838;52.152;5.436;2023-11-22T10:13:49;16.80;;;7.50;;
71969;SDS011;59838;52.152;5.436;2023-11-22T10:16:17;14.20;;;6.30;;
71969;SDS011;59838;52.152;5.436;2023-11-22T10:18:45;12.63;;;7.32;;
71969;SDS011;59838;52.152;5.436;2023-11-22T10:21:20;15.63;;;7.13;;
71969;SDS011;59838;52.152;5.436;2023-11-22T10:23:54;12.82;;;7.07;;
71969;SDS011;59838;52.152;5.436;2023-11-22T10:26:23;16.48;;;7.82;;
71969;SDS011;59838;52.152;5.436;2023-11-22T10:28:51;14.90;;;8.13;;
71969;SDS011;59838;52.152;5.436;2023-11-22T10:31:19;12.50;;;6.75;;
71969;SDS011;59838;52.152;5.436;2023-11-22T10:33:48;13.97;;;7.47;;
71969;SDS011;59838;52.152;5.436;2023-11-22T10:36:15;26.98;;;14.50;;
71969;SDS011;59838;52.152;5.436;2023-11-22T10:38:45;29.83;;;17.23;;
71969;SDS011;59838;52.152;5.436;2023-11-22T10:41:12;28.63;;;16.45;;
71969;SDS011;59838;52.152;5.436;2023-11-22T10:43:42;18.40;;;10.30;;
71969;SDS011;59838;52.152;5.436;2023-11-22T10:46:12;46.07;;;22.30;;
71969;SDS011;59838;52.152;5.436;2023-11-22T10:48:40;16.58;;;8.52;;
71969;SDS011;59838;52.152;5.436;2023-11-22T10:51:06;13.52;;;8.23;;
71969;SDS011;59838;52.152;5.436;2023-11-22T10:53:42;19.25;;;10.35;;
71969;SDS011;59838;52.152;5.436;2023-11-22T10:56:16;29.83;;;19.15;;
71969;SDS011;59838;52.152;5.436;2023-11-22T10:59:08;38.00;;;20.53;;
71969;SDS011;59838;52.152;5.436;2023-11-22T11:01:42;20.42;;;11.50;;
71969;SDS011;59838;52.152;5.436;2023-11-22T11:04:18;14.02;;;8.80;;
71969;SDS011;59838;52.152;5.436;2023-11-22T11:06:49;10.80;;;6.25;;
71969;SDS011;59838;52.152;5.436;2023-11-22T11:09:19;18.05;;;9.48;;
71969;SDS011;59838;52.152;5.436;2023-11-22T11:11:50;22.30;;;12.77;;
71969;SDS011;59838;52.152;5.436;2023-11-22T11:14:17;16.52;;;8.23;;
71969;SDS011;59838;52.152;5.436;2023-11-22T11:16:45;12.50;;;8.00;;
71969;SDS011;59838;52.152;5.436;2023-11-22T11:19:16;14.48;;;7.82;;
71969;SDS011;59838;52.152;5.436;2023-11-22T11:21:48;12.70;;;7.50;;
71969;SDS011;59838;52.152;5.436;2023-11-22T11:24:15;17.90;;;11.50;;
71969;SDS011;59838;52.152;5.436;2023-11-22T11:26:50;14.18;;;9.55;;
71969;SDS011;59838;52.152;5.436;2023-11-22T11:29:29;15.73;;;9.85;;
71969;SDS011;59838;52.152;5.436;2023-11-22T11:32:00;15.18;;;8.40;;
71969;SDS011;59838;52.152;5.436;2023-11-22T11:34:29;12.55;;;7.53;;
71969;SDS011;59838;52.152;5.436;2023-11-22T11:36:55;12.97;;;7.10;;
71969;SDS011;59838;52.152;5.436;2023-11-22T11:39:24;11.05;;;6.43;;
71969;SDS011;59838;52.152;5.436;2023-11-22T11:42:09;14.25;;;6.65;;
71969;SDS011;59838;52.152;5.436;2023-11-22T11:47:29;10.30;;;6.53;;
71969;SDS011;59838;52.152;5.436;2023-11-22T11:49:56;14.07;;;7.20;;
71969;SDS011;59838;52.152;5.436;2023-11-22T11:52:24;10.40;;;6.68;;
71969;SDS011;59838;52.152;5.436;2023-11-22T11:54:52;12.80;;;7.13;;
71969;SDS011;59838;52.152;5.436;2023-11-22T11:57:18;13.50;;;7.10;;
71969;SDS011;59838;52.152;5.436;2023-11-22T11:59:45;12.20;;;7.68;;
71969;SDS011;59838;52.152;5.436;2023-11-22T12:02:13;17.83;;;8.17;;
71969;SDS011;59838;52.152;5.436;2023-11-22T12:04:39;12.75;;;6.68;;
71969;SDS011;59838;52.152;5.436;2023-11-22T12:07:08;8.73;;;6.03;;
71969;SDS011;59838;52.152;5.436;2023-11-22T12:09:36;10.95;;;6.85;;
71969;SDS011;59838;52.152;5.436;2023-11-22T12:12:03;10.57;;;5.72;;
71969;SDS011;59838;52.152;5.436;2023-11-22T12:14:31;9.17;;;6.33;;
71969;SDS011;59838;52.152;5.436;2023-11-22T12:16:57;9.48;;;5.45;;
71969;SDS011;59838;52.152;5.436;2023-11-22T12:19:25;9.88;;;6.00;;
71969;SDS011;59838;52.152;5.436;2023-11-22T12:21:57;9.40;;;6.43;;
71969;SDS011;59838;52.152;5.436;2023-11-22T12:24:24;14.50;;;11.05;;
71969;SDS011;59838;52.152;5.436;2023-11-22T12:26:50;12.17;;;6.47;;
71969;SDS011;59838;52.152;5.436;2023-11-22T12:29:17;10.52;;;6.97;;
71969;SDS011;59838;52.152;5.436;2023-11-22T12:31:50;12.20;;;7.15;;
71969;SDS011;59838;52.152;5.436;2023-11-22T12:34:19;9.60;;;5.90;;
71969;SDS011;59838;52.152;5.436;2023-11-22T12:36:46;8.93;;;5.47;;
71969;SDS011;59838;52.152;5.436;2023-11-22T12:39:16;10.43;;;6.17;;
71969;SDS011;59838;52.152;5.436;2023-11-22T12:41:50;15.27;;;5.18;;
71969;SDS011;59838;52.152;5.436;2023-11-22T12:44:31;10.82;;;5.90;;
71969;SDS011;59838;52.152;5.436;2023-11-22T12:46:59;11.75;;;6.45;;
71969;SDS011;59838;52.152;5.436;2023-11-22T12:49:30;12.48;;;6.65;;
71969;SDS011;59838;52.152;5.436;2023-11-22T12:51:58;10.67;;;5.93;;
71969;SDS011;59838;52.152;5.436;2023-11-22T12:54:25;13.98;;;6.38;;
71969;SDS011;59838;52.152;5.436;2023-11-22T12:56:51;11.00;;;6.22;;
71969;SDS011;59838;52.152;5.436;2023-11-22T12:59:25;12.02;;;6.57;;
71969;SDS011;59838;52.152;5.436;2023-11-22T13:01:54;10.90;;;6.15;;
71969;SDS011;59838;52.152;5.436;2023-11-22T13:04:20;15.57;;;7.80;;
71969;SDS011;59838;52.152;5.436;2023-11-22T13:06:47;12.57;;;7.05;;
71969;SDS011;59838;52.152;5.436;2023-11-22T13:09:14;14.00;;;7.18;;
71969;SDS011;59838;52.152;5.436;2023-11-22T13:11:41;13.10;;;7.20;;
71969;SDS011;59838;52.152;5.436;2023-11-22T13:14:09;14.40;;;7.03;;
71969;SDS011;59838;52.152;5.436;2023-11-22T13:16:37;14.00;;;7.03;;
71969;SDS011;59838;52.152;5.436;2023-11-22T13:19:05;15.55;;;7.57;;
71969;SDS011;59838;52.152;5.436;2023-11-22T13:21:31;16.67;;;7.72;;
71969;SDS011;59838;52.152;5.436;2023-11-22T13:23:58;13.90;;;7.35;;
71969;SDS011;59838;52.152;5.436;2023-11-22T13:26:26;14.50;;;7.22;;
71969;SDS011;59838;52.152;5.436;2023-11-22T13:28:52;14.43;;;7.70;;
71969;SDS011;59838;52.152;5.436;2023-11-22T13:31:21;13.23;;;7.35;;
71969;SDS011;59838;52.152;5.436;2023-11-22T13:33:48;13.07;;;6.63;;
71969;SDS011;59838;52.152;5.436;2023-11-22T13:36:14;13.18;;;7.68;;
71969;SDS011;59838;52.152;5.436;2023-11-22T13:38:41;13.05;;;6.57;;
71969;SDS011;59838;52.152;5.436;2023-11-22T13:41:07;12.97;;;7.87;;
71969;SDS011;59838;52.152;5.436;2023-11-22T13:43:35;11.10;;;7.15;;
71969;SDS011;59838;52.152;5.436;2023-11-22T13:46:01;13.80;;;7.38;;
71969;SDS011;59838;52.152;5.436;2023-11-22T13:48:28;12.77;;;7.60;;
71969;SDS011;59838;52.152;5.436;2023-11-22T13:50:55;13.43;;;6.80;;
71969;SDS011;59838;52.152;5.436;2023-11-22T13:53:22;16.23;;;7.10;;
71969;SDS011;59838;52.152;5.436;2023-11-22T13:55:49;14.38;;;7.22;;
71969;SDS011;59838;52.152;5.436;2023-11-22T13:58:18;13.38;;;7.55;;
71969;SDS011;59838;52.152;5.436;2023-11-22T14:00:44;14.05;;;7.95;;
71969;SDS011;59838;52.152;5.436;2023-11-22T14:03:14;15.25;;;8.45;;
71969;SDS011;59838;52.152;5.436;2023-11-22T14:05:40;18.83;;;8.20;;
71969;SDS011;59838;52.152;5.436;2023-11-22T14:08:07;12.60;;;7.82;;
71969;SDS011;59838;52.152;5.436;2023-11-22T14:10:34;15.13;;;6.80;;
71969;SDS011;59838;52.152;5.436;2023-11-22T14:13:00;15.95;;;7.70;;
71969;SDS011;59838;52.152;5.436;2023-11-22T14:15:29;14.25;;;7.82;;
71969;SDS011;59838;52.152;5.436;2023-11-22T14:17:55;15.03;;;10.23;;
71969;SDS011;59838;52.152;5.436;2023-11-22T14:20:22;14.07;;;8.13;;
71969;SDS011;59838;52.152;5.436;2023-11-22T14:22:50;12.52;;;7.68;;
71969;SDS011;59838;52.152;5.436;2023-11-22T14:25:18;13.98;;;7.90;;
71969;SDS011;59838;52.152;5.436;2023-11-22T14:27:45;14.27;;;7.72;;
71969;SDS011;59838;52.152;5.436;2023-11-22T14:30:13;15.17;;;8.70;;
71969;SDS011;59838;52.152;5.436;2023-11-22T14:32:41;17.25;;;8.32;;
71969;SDS011;59838;52.152;5.436;2023-11-22T14:35:11;13.80;;;7.45;;
71969;SDS011;59838;52.152;5.436;2023-11-22T14:37:39;15.38;;;8.80;;
71969;SDS011;59838;52.152;5.436;2023-11-22T14:40:09;14.27;;;8.35;;
71969;SDS011;59838;52.152;5.436;2023-11-22T14:42:43;15.70;;;8.00;;
71969;SDS011;59838;52.152;5.436;2023-11-22T14:45:15;16.85;;;9.65;;